createdAt,value
2022-08-05T00:00:00.549Z,1.77
2022-08-05T00:10:03.003Z,1.63
2022-08-05T00:20:06.015Z,1.77
2022-08-05T00:30:11.375Z,1.87
2022-08-05T00:40:14.598Z,2.00
2022-08-05T00:50:20.921Z,1.70
2022-08-05T01:00:25.955Z,1.60
2022-08-05T01:10:35.343Z,1.85
2022-08-05T01:21:08.139Z,1.90
2022-08-05T01:31:30.039Z,1.98
2022-08-05T01:41:36.201Z,1.67
2022-08-05T01:51:40.990Z,2.42
2022-08-05T02:01:57.675Z,1.80
2022-08-05T02:12:01.024Z,1.80
2022-08-05T02:22:26.604Z,1.90
2022-08-05T02:32:32.068Z,1.80
2022-08-05T02:42:36.308Z,2.12
2022-08-05T02:52:38.988Z,1.85
2022-08-05T03:02:45.683Z,1.90
2022-08-05T03:12:47.929Z,1.90
2022-08-05T03:22:57.556Z,2.00
2022-08-05T03:33:01.804Z,1.90
2022-08-05T03:43:58.633Z,2.03
2022-08-05T03:55:52.424Z,1.98
2022-08-05T04:04:10.218Z,2.40
2022-08-05T04:14:18.110Z,2.15
2022-08-05T04:24:22.656Z,2.30
2022-08-05T04:34:33.372Z,2.10
2022-08-05T04:44:37.049Z,2.03
2022-08-05T04:54:39.351Z,2.20
2022-08-05T05:04:44.172Z,2.33
2022-08-05T05:14:51.427Z,3.00
2022-08-05T05:24:58.839Z,2.12
2022-08-05T05:35:03.505Z,2.08
2022-08-05T05:45:09.284Z,2.58
2022-08-05T05:55:16.189Z,2.30
2022-08-05T06:05:20.400Z,2.33
2022-08-05T06:15:25.027Z,2.75
2022-08-05T06:26:12.728Z,2.50
2022-08-05T06:36:12.511Z,2.95
2022-08-05T06:46:15.714Z,2.65
2022-08-05T06:56:26.328Z,2.15
2022-08-05T07:06:33.280Z,2.30
2022-08-05T07:18:02.351Z,1.90
2022-08-05T07:27:16.841Z,1.70
2022-08-05T07:37:20.436Z,1.62
2022-08-05T07:47:25.844Z,1.87
2022-08-05T07:57:55.136Z,1.50
2022-08-05T08:08:00.077Z,1.65
2022-08-05T08:18:09.728Z,1.90
2022-08-05T08:28:36.654Z,2.17
2022-08-05T08:38:41.407Z,2.22
2022-08-05T08:49:06.345Z,1.87
2022-08-05T08:59:14.844Z,2.20
2022-08-05T09:09:34.580Z,2.20
2022-08-05T09:20:01.851Z,1.98
2022-08-05T09:30:07.559Z,2.12
2022-08-05T09:40:34.149Z,2.28
2022-08-05T09:50:44.808Z,1.95
2022-08-05T10:01:15.061Z,2.12
2022-08-05T10:11:31.274Z,1.95
2022-08-05T10:21:40.250Z,2.35
2022-08-05T10:32:54.429Z,2.50
2022-08-05T10:42:33.379Z,2.35
2022-08-05T10:53:03.452Z,2.65
2022-08-05T11:03:25.377Z,2.20
2022-08-05T11:13:57.913Z,2.90
2022-08-05T11:24:30.438Z,2.60
2022-08-05T11:34:51.010Z,2.58
2022-08-05T11:45:05.337Z,2.70
2022-08-05T11:55:10.419Z,2.47
2022-08-05T12:05:36.158Z,2.10
2022-08-05T12:15:49.454Z,2.80
2022-08-05T12:25:56.930Z,2.42
2022-08-05T12:36:01.404Z,2.87
2022-08-05T12:46:06.247Z,2.60
2022-08-05T12:56:35.180Z,2.78
2022-08-05T13:06:51.829Z,2.58
2022-08-05T13:16:59.010Z,3.10
2022-08-05T13:27:01.742Z,2.67
2022-08-05T13:37:04.818Z,2.75
2022-08-05T13:47:10.453Z,3.08
2022-08-05T13:57:49.075Z,2.85
2022-08-05T14:08:03.169Z,2.90
2022-08-05T14:18:17.832Z,2.87
2022-08-05T14:28:27.277Z,2.85
2022-08-05T14:38:34.185Z,2.85
2022-08-05T14:48:38.496Z,2.87
2022-08-05T14:58:47.868Z,2.70
2022-08-05T15:08:58.104Z,2.75
2022-08-05T15:19:03.544Z,2.78
2022-08-05T15:29:06.350Z,2.55
2022-08-05T15:40:59.222Z,2.50
2022-08-05T15:49:53.622Z,2.47
2022-08-05T15:59:57.752Z,2.45
2022-08-05T16:10:01.043Z,2.00
2022-08-05T16:20:11.818Z,2.55
2022-08-05T16:30:23.321Z,2.65
2022-08-05T16:40:30.606Z,2.28
2022-08-05T16:50:33.026Z,2.62
2022-08-05T17:00:37.692Z,3.10
2022-08-05T17:10:41.493Z,2.90
2022-08-05T17:20:46.024Z,2.50
2022-08-05T17:30:52.138Z,2.40
2022-08-05T17:40:56.342Z,2.47
2022-08-05T17:51:00.636Z,2.45
2022-08-05T18:01:04.224Z,2.50
2022-08-05T18:11:11.466Z,2.30
2022-08-05T18:22:08.805Z,2.10
2022-08-05T18:31:55.746Z,2.05
2022-08-05T18:42:06.367Z,2.50
2022-08-05T18:52:33.146Z,2.15
2022-08-05T19:02:38.421Z,2.10
2022-08-05T19:12:41.477Z,1.67
2022-08-05T19:22:45.812Z,1.90
2022-08-05T19:32:48.644Z,1.92
2022-08-05T19:43:04.954Z,1.85
2022-08-05T19:53:10.897Z,1.30
2022-08-05T20:03:15.887Z,1.58
2022-08-05T20:13:30.128Z,1.48
2022-08-05T20:23:51.089Z,1.40
2022-08-05T20:44:17.239Z,1.50
2022-08-05T20:54:26.011Z,1.27
2022-08-05T21:04:48.194Z,1.50
2022-08-05T21:14:54.477Z,1.67
2022-08-05T21:24:57.612Z,2.00
2022-08-05T21:35:16.773Z,2.10
2022-08-05T21:45:51.632Z,2.30
2022-08-05T21:56:04.980Z,2.33
2022-08-05T22:06:10.191Z,2.00
2022-08-05T22:16:41.024Z,2.73
2022-08-05T22:26:54.303Z,2.43
2022-08-05T22:37:00.500Z,2.33
2022-08-05T22:47:07.567Z,3.30
2022-08-05T22:57:10.386Z,3.00
2022-08-05T23:07:13.218Z,3.43
2022-08-05T23:17:34.368Z,3.50
2022-08-05T23:27:57.510Z,3.23
2022-08-05T23:38:03.343Z,3.05
2022-08-05T23:48:06.885Z,3.33
2022-08-05T23:58:31.772Z,3.97
